sensor_id;sensor_type;location;lat;lon;timestamp;P1;durP1;ratioP1;P2;durP2;ratioP2
45867;SDS011;31582;45.490;7.860;2023-06-05T00:01:09;12.40;;;11.20;;
45867;SDS011;31582;45.490;7.860;2023-06-05T00:03:36;12.02;;;10.90;;
45867;SDS011;31582;45.490;7.860;2023-06-05T00:06:05;13.02;;;11.60;;
45867;SDS011;31582;45.490;7.860;2023-06-05T00:08:32;12.18;;;10.93;;
45867;SDS011;31582;45.490;7.860;2023-06-05T00:10:59;10.23;;;9.23;;
45867;SDS011;31582;45.490;7.860;2023-06-05T00:13:26;7.40;;;6.78;;
45867;SDS011;31582;45.490;7.860;2023-06-05T00:15:53;6.15;;;5.55;;
45867;SDS011;31582;45.490;7.860;2023-06-05T00:18:21;5.40;;;4.93;;
45867;SDS011;31582;45.490;7.860;2023-06-05T00:20:48;5.00;;;4.60;;
45867;SDS011;31582;45.490;7.860;2023-06-05T00:23:15;4.68;;;4.28;;
45867;SDS011;31582;45.490;7.860;2023-06-05T00:25:42;4.33;;;3.93;;
45867;SDS011;31582;45.490;7.860;2023-06-05T00:28:09;4.20;;;3.80;;
45867;SDS011;31582;45.490;7.860;2023-06-05T00:30:36;3.70;;;3.40;;
45867;SDS011;31582;45.490;7.860;2023-06-05T00:33:03;3.67;;;3.38;;
45867;SDS011;31582;45.490;7.860;2023-06-05T00:35:31;3.80;;;3.38;;
45867;SDS011;31582;45.490;7.860;2023-06-05T00:37:58;4.25;;;3.85;;
45867;SDS011;31582;45.490;7.860;2023-06-05T00:40:25;4.13;;;3.72;;
45867;SDS011;31582;45.490;7.860;2023-06-05T00:42:52;4.60;;;4.18;;
45867;SDS011;31582;45.490;7.860;2023-06-05T00:45:18;4.63;;;4.22;;
45867;SDS011;31582;45.490;7.860;2023-06-05T00:47:45;5.33;;;4.83;;
45867;SDS011;31582;45.490;7.860;2023-06-05T00:50:13;4.13;;;3.72;;
45867;SDS011;31582;45.490;7.860;2023-06-05T00:52:41;3.70;;;3.20;;
45867;SDS011;31582;45.490;7.860;2023-06-05T00:55:10;5.00;;;4.47;;
45867;SDS011;31582;45.490;7.860;2023-06-05T00:57:38;5.95;;;5.40;;
45867;SDS011;31582;45.490;7.860;2023-06-05T01:00:09;5.80;;;5.30;;
45867;SDS011;31582;45.490;7.860;2023-06-05T01:02:39;6.05;;;5.10;;
45867;SDS011;31582;45.490;7.860;2023-06-05T02:43:18;5.87;;;5.20;;
45867;SDS011;31582;45.490;7.860;2023-06-05T02:45:46;6.85;;;6.15;;
45867;SDS011;31582;45.490;7.860;2023-06-05T02:48:13;6.13;;;5.57;;
45867;SDS011;31582;45.490;7.860;2023-06-05T02:50:40;5.65;;;5.15;;
45867;SDS011;31582;45.490;7.860;2023-06-05T02:53:07;5.55;;;5.05;;
45867;SDS011;31582;45.490;7.860;2023-06-05T02:55:33;5.07;;;4.55;;
45867;SDS011;31582;45.490;7.860;2023-06-05T02:58:01;4.85;;;4.45;;
45867;SDS011;31582;45.490;7.860;2023-06-05T03:00:28;4.70;;;4.30;;
45867;SDS011;31582;45.490;7.860;2023-06-05T03:02:54;5.43;;;4.93;;
45867;SDS011;31582;45.490;7.860;2023-06-05T03:05:22;5.05;;;4.30;;
45867;SDS011;31582;45.490;7.860;2023-06-05T03:07:53;4.63;;;4.22;;
45867;SDS011;31582;45.490;7.860;2023-06-05T03:10:20;4.38;;;4.00;;
45867;SDS011;31582;45.490;7.860;2023-06-05T03:12:47;4.70;;;4.30;;
45867;SDS011;31582;45.490;7.860;2023-06-05T03:15:14;4.20;;;3.80;;
45867;SDS011;31582;45.490;7.860;2023-06-05T03:17:42;7.28;;;5.13;;
45867;SDS011;31582;45.490;7.860;2023-06-05T03:20:09;4.63;;;4.13;;
45867;SDS011;31582;45.490;7.860;2023-06-05T03:22:37;4.60;;;4.20;;
45867;SDS011;31582;45.490;7.860;2023-06-05T03:25:04;4.20;;;3.70;;
45867;SDS011;31582;45.490;7.860;2023-06-05T03:27:31;3.55;;;3.25;;
45867;SDS011;31582;45.490;7.860;2023-06-05T03:29:58;3.75;;;3.45;;
45867;SDS011;31582;45.490;7.860;2023-06-05T03:32:25;4.43;;;4.03;;
45867;SDS011;31582;45.490;7.860;2023-06-05T03:34:52;4.60;;;4.20;;
45867;SDS011;31582;45.490;7.860;2023-06-05T03:37:19;4.38;;;3.45;;
45867;SDS011;31582;45.490;7.860;2023-06-05T03:39:46;3.25;;;2.95;;
45867;SDS011;31582;45.490;7.860;2023-06-05T03:42:13;3.30;;;3.00;;
45867;SDS011;31582;45.490;7.860;2023-06-05T03:44:40;3.40;;;3.08;;
45867;SDS011;31582;45.490;7.860;2023-06-05T03:47:07;3.20;;;2.83;;
45867;SDS011;31582;45.490;7.860;2023-06-05T03:49:34;4.03;;;3.65;;
45867;SDS011;31582;45.490;7.860;2023-06-05T03:52:02;4.05;;;3.67;;
45867;SDS011;31582;45.490;7.860;2023-06-05T03:54:30;3.90;;;3.40;;
45867;SDS011;31582;45.490;7.860;2023-06-05T03:56:59;4.60;;;4.20;;
45867;SDS011;31582;45.490;7.860;2023-06-05T03:59:27;4.10;;;3.70;;
45867;SDS011;31582;45.490;7.860;2023-06-05T04:01:55;4.00;;;3.50;;
45867;SDS011;31582;45.490;7.860;2023-06-05T04:04:23;4.57;;;4.18;;
45867;SDS011;31582;45.490;7.860;2023-06-05T04:06:50;3.22;;;3.03;;
45867;SDS011;31582;45.490;7.860;2023-06-05T04:09:18;4.57;;;3.60;;
45867;SDS011;31582;45.490;7.860;2023-06-05T04:11:45;4.32;;;3.92;;
45867;SDS011;31582;45.490;7.860;2023-06-05T04:14:12;4.40;;;4.00;;
45867;SDS011;31582;45.490;7.860;2023-06-05T04:16:39;4.40;;;4.00;;
45867;SDS011;31582;45.490;7.860;2023-06-05T04:19:09;3.75;;;3.45;;
45867;SDS011;31582;45.490;7.860;2023-06-05T04:21:38;4.30;;;3.90;;
45867;SDS011;31582;45.490;7.860;2023-06-05T04:24:05;7.90;;;4.80;;
45867;SDS011;31582;45.490;7.860;2023-06-05T04:26:35;3.90;;;3.60;;
45867;SDS011;31582;45.490;7.860;2023-06-05T04:29:03;3.60;;;3.30;;
45867;SDS011;31582;45.490;7.860;2023-06-05T04:31:43;5.50;;;4.60;;
45867;SDS011;31582;45.490;7.860;2023-06-05T04:34:11;4.88;;;4.38;;
45867;SDS011;31582;45.490;7.860;2023-06-05T04:36:41;4.20;;;3.75;;
45867;SDS011;31582;45.490;7.860;2023-06-05T04:39:08;4.55;;;4.15;;
45867;SDS011;31582;45.490;7.860;2023-06-05T04:41:42;4.13;;;3.65;;
45867;SDS011;31582;45.490;7.860;2023-06-05T04:44:28;6.00;;;5.40;;
45867;SDS011;31582;45.490;7.860;2023-06-05T04:46:55;6.07;;;5.00;;
45867;SDS011;31582;45.490;7.860;2023-06-05T04:49:22;6.00;;;5.40;;
45867;SDS011;31582;45.490;7.860;2023-06-05T04:51:49;5.03;;;4.35;;
45867;SDS011;31582;45.490;7.860;2023-06-05T04:54:16;4.38;;;3.95;;
45867;SDS011;31582;45.490;7.860;2023-06-05T04:56:43;4.05;;;3.65;;
45867;SDS011;31582;45.490;7.860;2023-06-05T04:59:11;4.43;;;4.03;;
45867;SDS011;31582;45.490;7.860;2023-06-05T05:01:38;5.22;;;4.32;;
45867;SDS011;31582;45.490;7.860;2023-06-05T05:04:07;5.40;;;4.43;;
45867;SDS011;31582;45.490;7.860;2023-06-05T05:06:34;4.43;;;4.03;;
45867;SDS011;31582;45.490;7.860;2023-06-05T05:09:01;4.45;;;4.05;;
45867;SDS011;31582;45.490;7.860;2023-06-05T05:11:30;4.07;;;3.70;;
45867;SDS011;31582;45.490;7.860;2023-06-05T05:13:57;4.50;;;4.10;;
45867;SDS011;31582;45.490;7.860;2023-06-05T05:16:24;3.97;;;3.67;;
45867;SDS011;31582;45.490;7.860;2023-06-05T05:18:51;4.78;;;4.05;;
45867;SDS011;31582;45.490;7.860;2023-06-05T05:21:18;4.57;;;4.10;;
45867;SDS011;31582;45.490;7.860;2023-06-05T05:23:45;4.38;;;3.95;;
45867;SDS011;31582;45.490;7.860;2023-06-05T05:26:12;4.40;;;3.47;;
45867;SDS011;31582;45.490;7.860;2023-06-05T05:28:39;4.03;;;3.42;;
45867;SDS011;31582;45.490;7.860;2023-06-05T05:31:06;4.22;;;3.78;;
45867;SDS011;31582;45.490;7.860;2023-06-05T05:33:33;4.18;;;3.78;;
45867;SDS011;31582;45.490;7.860;2023-06-05T05:36:00;4.20;;;3.80;;
45867;SDS011;31582;45.490;7.860;2023-06-05T05:38:27;4.50;;;4.10;;
45867;SDS011;31582;45.490;7.860;2023-06-05T05:40:54;3.78;;;3.47;;
45867;SDS011;31582;45.490;7.860;2023-06-05T05:43:21;3.70;;;3.40;;
45867;SDS011;31582;45.490;7.860;2023-06-05T05:45:48;2.80;;;2.60;;
45867;SDS011;31582;45.490;7.860;2023-06-05T05:48:15;2.70;;;2.50;;
45867;SDS011;31582;45.490;7.860;2023-06-05T05:50:41;3.15;;;2.85;;
45867;SDS011;31582;45.490;7.860;2023-06-05T05:53:09;3.75;;;3.45;;
45867;SDS011;31582;45.490;7.860;2023-06-05T05:55:36;5.33;;;3.40;;
45867;SDS011;31582;45.490;7.860;2023-06-05T05:58:02;3.75;;;3.45;;
45867;SDS011;31582;45.490;7.860;2023-06-05T06:00:29;3.28;;;2.60;;
45867;SDS011;31582;45.490;7.860;2023-06-05T06:02:56;2.83;;;2.63;;
45867;SDS011;31582;45.490;7.860;2023-06-05T06:05:23;3.17;;;2.90;;
45867;SDS011;31582;45.490;7.860;2023-06-05T06:07:50;3.90;;;3.45;;
45867;SDS011;31582;45.490;7.860;2023-06-05T06:10:17;4.30;;;3.85;;
45867;SDS011;31582;45.490;7.860;2023-06-05T06:12:45;3.38;;;3.08;;
45867;SDS011;31582;45.490;7.860;2023-06-05T06:15:13;3.58;;;3.10;;
45867;SDS011;31582;45.490;7.860;2023-06-05T06:17:40;2.70;;;2.50;;
45867;SDS011;31582;45.490;7.860;2023-06-05T06:20:07;7.47;;;3.58;;
45867;SDS011;31582;45.490;7.860;2023-06-05T06:22:38;3.42;;;2.78;;
45867;SDS011;31582;45.490;7.860;2023-06-05T06:25:06;4.45;;;4.03;;
45867;SDS011;31582;45.490;7.860;2023-06-05T06:27:36;5.30;;;4.80;;
45867;SDS011;31582;45.490;7.860;2023-06-05T06:30:03;8.35;;;4.68;;
45867;SDS011;31582;45.490;7.860;2023-06-05T06:32:31;5.88;;;5.28;;
45867;SDS011;31582;45.490;7.860;2023-06-05T06:34:58;4.80;;;4.40;;
45867;SDS011;31582;45.490;7.860;2023-06-05T06:37:26;5.80;;;5.20;;
45867;SDS011;31582;45.490;7.860;2023-06-05T06:39:53;3.90;;;3.45;;
45867;SDS011;31582;45.490;7.860;2023-06-05T06:42:20;4.35;;;3.95;;
45867;SDS011;31582;45.490;7.860;2023-06-05T06:44:46;4.05;;;3.63;;
45867;SDS011;31582;45.490;7.860;2023-06-05T06:47:13;4.95;;;3.75;;
45867;SDS011;31582;45.490;7.860;2023-06-05T06:49:40;5.03;;;4.50;;
45867;SDS011;31582;45.490;7.860;2023-06-05T06:52:07;4.30;;;3.90;;
45867;SDS011;31582;45.490;7.860;2023-06-05T06:54:35;3.75;;;3.33;;
45867;SDS011;31582;45.490;7.860;2023-06-05T06:57:04;2.97;;;2.78;;
45867;SDS011;31582;45.490;7.860;2023-06-05T06:59:31;2.50;;;2.30;;
45867;SDS011;31582;45.490;7.860;2023-06-05T07:04:58;2.72;;;2.25;;
45867;SDS011;31582;45.490;7.860;2023-06-05T07:07:25;1.88;;;1.70;;
45867;SDS011;31582;45.490;7.860;2023-06-05T07:09:51;2.10;;;1.90;;
45867;SDS011;31582;45.490;7.860;2023-06-05T07:12:18;2.20;;;2.00;;
45867;SDS011;31582;45.490;7.860;2023-06-05T07:14:47;1.80;;;1.70;;
45867;SDS011;31582;45.490;7.860;2023-06-05T07:17:16;2.70;;;1.80;;
45867;SDS011;31582;45.490;7.860;2023-06-05T07:19:43;1.90;;;1.70;;
45867;SDS011;31582;45.490;7.860;2023-06-05T07:22:10;2.33;;;2.10;;
45867;SDS011;31582;45.490;7.860;2023-06-05T07:24:37;2.30;;;2.10;;
45867;SDS011;31582;45.490;7.860;2023-06-05T07:27:05;3.75;;;2.50;;
45867;SDS011;31582;45.490;7.860;2023-06-05T07:29:32;2.60;;;2.40;;
45867;SDS011;31582;45.490;7.860;2023-06-05T07:31:59;3.63;;;3.00;;
45867;SDS011;31582;45.490;7.860;2023-06-05T07:34:26;3.22;;;2.92;;
45867;SDS011;31582;45.490;7.860;2023-06-05T07:36:53;4.32;;;3.53;;
45867;SDS011;31582;45.490;7.860;2023-06-05T07:39:22;3.72;;;3.40;;
45867;SDS011;31582;45.490;7.860;2023-06-05T07:41:50;3.45;;;3.08;;
45867;SDS011;31582;45.490;7.860;2023-06-05T07:44:18;3.38;;;2.63;;
45867;SDS011;31582;45.490;7.860;2023-06-05T07:46:48;2.95;;;2.67;;
45867;SDS011;31582;45.490;7.860;2023-06-05T07:49:16;3.20;;;2.90;;
45867;SDS011;31582;45.490;7.860;2023-06-05T07:51:44;3.15;;;2.90;;
45867;SDS011;31582;45.490;7.860;2023-06-05T07:54:14;2.10;;;1.97;;
45867;SDS011;31582;45.490;7.860;2023-06-05T07:56:45;2.17;;;1.90;;
45867;SDS011;31582;45.490;7.860;2023-06-05T07:59:15;1.83;;;1.63;;
45867;SDS011;31582;45.490;7.860;2023-06-05T08:01:43;2.83;;;2.63;;
45867;SDS011;31582;45.490;7.860;2023-06-05T08:04:11;2.10;;;1.90;;
45867;SDS011;31582;45.490;7.860;2023-06-05T08:06:39;3.00;;;2.60;;
45867;SDS011;31582;45.490;7.860;2023-06-05T08:09:06;3.72;;;2.78;;
45867;SDS011;31582;45.490;7.860;2023-06-05T08:11:37;1.92;;;1.77;;
45867;SDS011;31582;45.490;7.860;2023-06-05T08:14:05;2.42;;;2.22;;
45867;SDS011;31582;45.490;7.860;2023-06-05T08:16:32;2.78;;;1.85;;
45867;SDS011;31582;45.490;7.860;2023-06-05T08:19:00;2.58;;;2.00;;
45867;SDS011;31582;45.490;7.860;2023-06-05T08:21:27;1.85;;;1.23;;
45867;SDS011;31582;45.490;7.860;2023-06-05T08:23:54;0.68;;;0.45;;
45867;SDS011;31582;45.490;7.860;2023-06-05T08:26:21;0.95;;;0.60;;
45867;SDS011;31582;45.490;7.860;2023-06-05T08:28:48;1.90;;;0.50;;
45867;SDS011;31582;45.490;7.860;2023-06-05T08:31:16;0.90;;;0.60;;
45867;SDS011;31582;45.490;7.860;2023-06-05T08:33:43;1.03;;;0.50;;
45867;SDS011;31582;45.490;7.860;2023-06-05T08:36:10;1.00;;;0.63;;
45867;SDS011;31582;45.490;7.860;2023-06-05T08:38:37;1.40;;;0.60;;
45867;SDS011;31582;45.490;7.860;2023-06-05T08:41:07;1.20;;;0.70;;
45867;SDS011;31582;45.490;7.860;2023-06-05T08:43:37;0.70;;;0.70;;
45867;SDS011;31582;45.490;7.860;2023-06-05T08:46:05;3.03;;;0.80;;
45867;SDS011;31582;45.490;7.860;2023-06-05T08:48:36;0.70;;;0.70;;
45867;SDS011;31582;45.490;7.860;2023-06-05T08:51:11;1.20;;;0.75;;
45867;SDS011;31582;45.490;7.860;2023-06-05T08:53:43;1.15;;;0.73;;
45867;SDS011;31582;45.490;7.860;2023-06-05T08:56:33;1.90;;;0.80;;
45867;SDS011;31582;45.490;7.860;2023-06-05T08:59:03;1.90;;;0.80;;
45867;SDS011;31582;45.490;7.860;2023-06-05T09:01:31;1.10;;;1.00;;
45867;SDS011;31582;45.490;7.860;2023-06-05T09:03:59;1.90;;;1.08;;
45867;SDS011;31582;45.490;7.860;2023-06-05T09:06:26;1.38;;;1.10;;
45867;SDS011;31582;45.490;7.860;2023-06-05T09:08:54;2.03;;;1.20;;
45867;SDS011;31582;45.490;7.860;2023-06-05T09:11:25;1.70;;;1.02;;
45867;SDS011;31582;45.490;7.860;2023-06-05T09:13:55;1.52;;;1.20;;
45867;SDS011;31582;45.490;7.860;2023-06-05T09:16:33;2.80;;;1.50;;
45867;SDS011;31582;45.490;7.860;2023-06-05T09:19:11;1.42;;;1.23;;
45867;SDS011;31582;45.490;7.860;2023-06-05T09:21:39;2.20;;;2.00;;
45867;SDS011;31582;45.490;7.860;2023-06-05T09:24:13;1.30;;;1.20;;
45867;SDS011;31582;45.490;7.860;2023-06-05T09:27:16;1.80;;;1.52;;
45867;SDS011;31582;45.490;7.860;2023-06-05T09:29:38;2.10;;;1.67;;
45867;SDS011;31582;45.490;7.860;2023-06-05T09:32:12;1.53;;;1.30;;
45867;SDS011;31582;45.490;7.860;2023-06-05T09:34:44;1.70;;;1.30;;
45867;SDS011;31582;45.490;7.860;2023-06-05T09:37:12;2.00;;;1.33;;
45867;SDS011;31582;45.490;7.860;2023-06-05T09:39:40;1.60;;;1.48;;
45867;SDS011;31582;45.490;7.860;2023-06-05T09:42:10;1.35;;;1.15;;
45867;SDS011;31582;45.490;7.860;2023-06-05T09:44:37;1.45;;;1.10;;
45867;SDS011;31582;45.490;7.860;2023-06-05T09:47:05;1.35;;;1.00;;
45867;SDS011;31582;45.490;7.860;2023-06-05T09:52:09;1.30;;;1.00;;
45867;SDS011;31582;45.490;7.860;2023-06-05T09:54:38;1.90;;;1.13;;
45867;SDS011;31582;45.490;7.860;2023-06-05T09:57:11;1.25;;;1.02;;
45867;SDS011;31582;45.490;7.860;2023-06-05T10:02:08;1.73;;;1.00;;
45867;SDS011;31582;45.490;7.860;2023-06-05T10:04:40;1.88;;;1.30;;
45867;SDS011;31582;45.490;7.860;2023-06-05T10:07:12;1.88;;;1.50;;
45867;SDS011;31582;45.490;7.860;2023-06-05T10:09:39;1.40;;;1.20;;
45867;SDS011;31582;45.490;7.860;2023-06-05T10:12:07;1.20;;;0.80;;
45867;SDS011;31582;45.490;7.860;2023-06-05T10:14:35;0.80;;;0.80;;
45867;SDS011;31582;45.490;7.860;2023-06-05T10:17:02;1.90;;;1.30;;
45867;SDS011;31582;45.490;7.860;2023-06-05T10:19:30;1.42;;;1.20;;
45867;SDS011;31582;45.490;7.860;2023-06-05T10:21:56;1.60;;;1.00;;
45867;SDS011;31582;45.490;7.860;2023-06-05T10:24:36;1.75;;;1.55;;
45867;SDS011;31582;45.490;7.860;2023-06-05T10:38:19;1.00;;;0.90;;
45867;SDS011;31582;45.490;7.860;2023-06-05T10:40:53;1.60;;;1.33;;
45867;SDS011;31582;45.490;7.860;2023-06-05T10:46:28;2.45;;;1.60;;
45867;SDS011;31582;45.490;7.860;2023-06-05T10:51:41;3.45;;;3.05;;
45867;SDS011;31582;45.490;7.860;2023-06-05T10:59:30;3.15;;;2.85;;
45867;SDS011;31582;45.490;7.860;2023-06-05T11:07:15;5.70;;;4.90;;
45867;SDS011;31582;45.490;7.860;2023-06-05T11:15:05;5.60;;;4.60;;
45867;SDS011;31582;45.490;7.860;2023-06-05T11:17:34;5.10;;;4.25;;
45867;SDS011;31582;45.490;7.860;2023-06-05T11:20:05;4.30;;;3.93;;
45867;SDS011;31582;45.490;7.860;2023-06-05T11:25:33;5.10;;;4.60;;
45867;SDS011;31582;45.490;7.860;2023-06-05T11:28:01;4.00;;;3.70;;
45867;SDS011;31582;45.490;7.860;2023-06-05T11:30:32;4.15;;;3.75;;
45867;SDS011;31582;45.490;7.860;2023-06-05T11:33:15;3.92;;;3.63;;
45867;SDS011;31582;45.490;7.860;2023-06-05T11:35:45;4.32;;;3.92;;
45867;SDS011;31582;45.490;7.860;2023-06-05T11:38:16;4.17;;;3.77;;
45867;SDS011;31582;45.490;7.860;2023-06-05T11:40:48;4.97;;;3.85;;
45867;SDS011;31582;45.490;7.860;2023-06-05T11:43:15;4.53;;;4.13;;
45867;SDS011;31582;45.490;7.860;2023-06-05T11:45:48;3.53;;;3.00;;
45867;SDS011;31582;45.490;7.860;2023-06-05T11:48:23;3.42;;;3.13;;
45867;SDS011;31582;45.490;7.860;2023-06-05T11:50:52;3.95;;;3.35;;
45867;SDS011;31582;45.490;7.860;2023-06-05T11:53:21;4.38;;;3.63;;
45867;SDS011;31582;45.490;7.860;2023-06-05T11:55:48;4.07;;;3.78;;
45867;SDS011;31582;45.490;7.860;2023-06-05T11:58:21;3.83;;;3.47;;
45867;SDS011;31582;45.490;7.860;2023-06-05T12:03:49;3.83;;;3.42;;
45867;SDS011;31582;45.490;7.860;2023-06-05T12:06:30;6.15;;;4.03;;
45867;SDS011;31582;45.490;7.860;2023-06-05T12:09:07;3.88;;;3.30;;
45867;SDS011;31582;45.490;7.860;2023-06-05T12:11:37;6.60;;;4.07;;
45867;SDS011;31582;45.490;7.860;2023-06-05T12:14:05;3.85;;;3.38;;
45867;SDS011;31582;45.490;7.860;2023-06-05T12:16:33;3.53;;;3.22;;
45867;SDS011;31582;45.490;7.860;2023-06-05T12:19:02;4.20;;;3.42;;
45867;SDS011;31582;45.490;7.860;2023-06-05T12:21:42;4.07;;;3.67;;
45867;SDS011;31582;45.490;7.860;2023-06-05T12:24:10;4.40;;;4.00;;
45867;SDS011;31582;45.490;7.860;2023-06-05T12:29:28;4.97;;;4.03;;
45867;SDS011;31582;45.490;7.860;2023-06-05T12:31:58;4.38;;;3.97;;
45867;SDS011;31582;45.490;7.860;2023-06-05T12:34:40;3.85;;;3.55;;
45867;SDS011;31582;45.490;7.860;2023-06-05T12:37:26;4.55;;;4.00;;
45867;SDS011;31582;45.490;7.860;2023-06-05T12:40:06;4.20;;;3.80;;
45867;SDS011;31582;45.490;7.860;2023-06-05T12:42:38;3.67;;;3.38;;
45867;SDS011;31582;45.490;7.860;2023-06-05T12:45:07;4.75;;;4.32;;
45867;SDS011;31582;45.490;7.860;2023-06-05T12:47:35;5.05;;;4.07;;
45867;SDS011;31582;45.490;7.860;2023-06-05T12:50:03;3.00;;;2.70;;
45867;SDS011;31582;45.490;7.860;2023-06-05T12:52:39;3.03;;;2.83;;
45867;SDS011;31582;45.490;7.860;2023-06-05T12:55:06;4.10;;;3.20;;
45867;SDS011;31582;45.490;7.860;2023-06-05T12:57:34;4.00;;;3.60;;
45867;SDS011;31582;45.490;7.860;2023-06-05T13:00:02;3.73;;;3.43;;
45867;SDS011;31582;45.490;7.860;2023-06-05T13:02:43;3.63;;;3.20;;
45867;SDS011;31582;45.490;7.860;2023-06-05T13:05:14;4.03;;;3.72;;
45867;SDS011;31582;45.490;7.860;2023-06-05T13:07:42;4.07;;;3.77;;
45867;SDS011;31582;45.490;7.860;2023-06-05T13:10:09;4.40;;;4.00;;
45867;SDS011;31582;45.490;7.860;2023-06-05T13:12:39;5.13;;;4.60;;
45867;SDS011;31582;45.490;7.860;2023-06-05T13:15:06;4.32;;;3.92;;
45867;SDS011;31582;45.490;7.860;2023-06-05T13:17:34;4.60;;;4.20;;
45867;SDS011;31582;45.490;7.860;2023-06-05T13:20:02;4.35;;;3.95;;
45867;SDS011;31582;45.490;7.860;2023-06-05T13:22:34;4.35;;;3.70;;
45867;SDS011;31582;45.490;7.860;2023-06-05T13:25:01;4.80;;;4.30;;
45867;SDS011;31582;45.490;7.860;2023-06-05T13:27:28;3.83;;;3.53;;
45867;SDS011;31582;45.490;7.860;2023-06-05T13:29:55;3.40;;;3.08;;
45867;SDS011;31582;45.490;7.860;2023-06-05T13:32:22;4.22;;;3.90;;
45867;SDS011;31582;45.490;7.860;2023-06-05T13:34:49;5.25;;;4.60;;
45867;SDS011;31582;45.490;7.860;2023-06-05T13:37:16;6.22;;;5.63;;
45867;SDS011;31582;45.490;7.860;2023-06-05T13:39:44;5.88;;;5.28;;
45867;SDS011;31582;45.490;7.860;2023-06-05T13:42:11;4.53;;;4.13;;
45867;SDS011;31582;45.490;7.860;2023-06-05T13:44:39;5.30;;;4.72;;
45867;SDS011;31582;45.490;7.860;2023-06-05T13:47:06;5.63;;;5.13;;
45867;SDS011;31582;45.490;7.860;2023-06-05T13:49:35;6.00;;;5.40;;
45867;SDS011;31582;45.490;7.860;2023-06-05T13:52:02;5.80;;;5.20;;
45867;SDS011;31582;45.490;7.860;2023-06-05T13:54:29;6.72;;;6.13;;
45867;SDS011;31582;45.490;7.860;2023-06-05T13:56:56;5.82;;;5.30;;
45867;SDS011;31582;45.490;7.860;2023-06-05T13:59:25;5.17;;;4.77;;
45867;SDS011;31582;45.490;7.860;2023-06-05T14:01:52;5.10;;;4.60;;
45867;SDS011;31582;45.490;7.860;2023-06-05T14:04:19;6.15;;;4.70;;
45867;SDS011;31582;45.490;7.860;2023-06-05T14:06:47;4.55;;;4.10;;
45867;SDS011;31582;45.490;7.860;2023-06-05T14:09:14;3.33;;;2.90;;
45867;SDS011;31582;45.490;7.860;2023-06-05T14:11:41;3.78;;;3.28;;
45867;SDS011;31582;45.490;7.860;2023-06-05T14:14:11;3.10;;;1.92;;
45867;SDS011;31582;45.490;7.860;2023-06-05T14:16:38;2.13;;;1.83;;
45867;SDS011;31582;45.490;7.860;2023-06-05T14:19:05;1.92;;;1.70;;
45867;SDS011;31582;45.490;7.860;2023-06-05T14:21:32;2.40;;;1.57;;
45867;SDS011;31582;45.490;7.860;2023-06-05T14:23:59;2.70;;;1.70;;
45867;SDS011;31582;45.490;7.860;2023-06-05T14:26:26;2.90;;;1.95;;
45867;SDS011;31582;45.490;7.860;2023-06-05T14:28:56;2.42;;;1.67;;
45867;SDS011;31582;45.490;7.860;2023-06-05T14:31:23;2.20;;;1.20;;
45867;SDS011;31582;45.490;7.860;2023-06-05T14:33:52;2.05;;;1.42;;
45867;SDS011;31582;45.490;7.860;2023-06-05T14:36:18;2.72;;;2.35;;
45867;SDS011;31582;45.490;7.860;2023-06-05T14:38:45;2.95;;;2.00;;
45867;SDS011;31582;45.490;7.860;2023-06-05T14:41:12;2.58;;;1.70;;
45867;SDS011;31582;45.490;7.860;2023-06-05T14:43:39;1.92;;;1.83;;
45867;SDS011;31582;45.490;7.860;2023-06-05T14:46:06;3.50;;;3.17;;
45867;SDS011;31582;45.490;7.860;2023-06-05T14:48:33;2.50;;;2.30;;
45867;SDS011;31582;45.490;7.860;2023-06-05T14:51:00;3.90;;;2.80;;
45867;SDS011;31582;45.490;7.860;2023-06-05T14:53:27;3.40;;;3.10;;
45867;SDS011;31582;45.490;7.860;2023-06-05T14:55:54;4.35;;;3.95;;
45867;SDS011;31582;45.490;7.860;2023-06-05T14:58:21;3.38;;;3.08;;
45867;SDS011;31582;45.490;7.860;2023-06-05T15:00:48;3.30;;;3.00;;
45867;SDS011;31582;45.490;7.860;2023-06-05T15:03:21;3.33;;;3.03;;
45867;SDS011;31582;45.490;7.860;2023-06-05T15:05:49;2.97;;;2.55;;
45867;SDS011;31582;45.490;7.860;2023-06-05T15:08:16;3.28;;;2.97;;
45867;SDS011;31582;45.490;7.860;2023-06-05T15:10:42;3.25;;;2.95;;
45867;SDS011;31582;45.490;7.860;2023-06-05T15:13:09;3.22;;;2.55;;
45867;SDS011;31582;45.490;7.860;2023-06-05T15:15:36;3.10;;;2.67;;
45867;SDS011;31582;45.490;7.860;2023-06-05T15:18:03;3.15;;;2.90;;
45867;SDS011;31582;45.490;7.860;2023-06-05T15:20:31;3.05;;;2.75;;
45867;SDS011;31582;45.490;7.860;2023-06-05T15:22:58;3.47;;;2.80;;
45867;SDS011;31582;45.490;7.860;2023-06-05T15:25:41;2.95;;;2.30;;
45867;SDS011;31582;45.490;7.860;2023-06-05T15:28:08;3.22;;;2.63;;
45867;SDS011;31582;45.490;7.860;2023-06-05T15:30:35;3.25;;;2.90;;
45867;SDS011;31582;45.490;7.860;2023-06-05T15:33:02;3.58;;;2.72;;
45867;SDS011;31582;45.490;7.860;2023-06-05T15:35:29;4.95;;;2.90;;
45867;SDS011;31582;45.490;7.860;2023-06-05T15:37:56;3.72;;;3.05;;
45867;SDS011;31582;45.490;7.860;2023-06-05T15:40:23;3.25;;;2.95;;
45867;SDS011;31582;45.490;7.860;2023-06-05T15:43:06;5.03;;;3.42;;
45867;SDS011;31582;45.490;7.860;2023-06-05T15:45:35;3.30;;;2.95;;
45867;SDS011;31582;45.490;7.860;2023-06-05T15:48:02;3.47;;;3.17;;
45867;SDS011;31582;45.490;7.860;2023-06-05T15:50:30;3.85;;;3.40;;
45867;SDS011;31582;45.490;7.860;2023-06-05T15:52:58;3.20;;;2.90;;
45867;SDS011;31582;45.490;7.860;2023-06-05T15:55:25;6.18;;;4.13;;
45867;SDS011;31582;45.490;7.860;2023-06-05T15:57:55;4.05;;;3.65;;
45867;SDS011;31582;45.490;7.860;2023-06-05T16:00:22;5.03;;;4.53;;
45867;SDS011;31582;45.490;7.860;2023-06-05T16:02:52;4.18;;;3.78;;
45867;SDS011;31582;45.490;7.860;2023-06-05T16:05:19;3.92;;;3.53;;
45867;SDS011;31582;45.490;7.860;2023-06-05T16:07:47;4.80;;;3.85;;
45867;SDS011;31582;45.490;7.860;2023-06-05T16:10:15;3.92;;;3.30;;
45867;SDS011;31582;45.490;7.860;2023-06-05T16:12:43;3.33;;;2.70;;
45867;SDS011;31582;45.490;7.860;2023-06-05T16:15:10;3.70;;;3.33;;
45867;SDS011;31582;45.490;7.860;2023-06-05T16:17:40;4.55;;;4.05;;
45867;SDS011;31582;45.490;7.860;2023-06-05T16:20:08;4.38;;;3.65;;
45867;SDS011;31582;45.490;7.860;2023-06-05T16:22:36;5.40;;;3.85;;
45867;SDS011;31582;45.490;7.860;2023-06-05T16:25:03;4.55;;;3.60;;
45867;SDS011;31582;45.490;7.860;2023-06-05T16:27:30;3.72;;;3.33;;
45867;SDS011;31582;45.490;7.860;2023-06-05T16:29:57;3.83;;;3.30;;
45867;SDS011;31582;45.490;7.860;2023-06-05T16:32:24;4.10;;;3.70;;
45867;SDS011;31582;45.490;7.860;2023-06-05T16:34:51;4.20;;;3.38;;
45867;SDS011;31582;45.490;7.860;2023-06-05T16:37:20;5.40;;;3.50;;
45867;SDS011;31582;45.490;7.860;2023-06-05T16:39:47;4.47;;;3.10;;
45867;SDS011;31582;45.490;7.860;2023-06-05T16:42:15;3.22;;;2.88;;
45867;SDS011;31582;45.490;7.860;2023-06-05T16:44:42;3.92;;;3.00;;
45867;SDS011;31582;45.490;7.860;2023-06-05T16:47:09;2.47;;;2.22;;
45867;SDS011;31582;45.490;7.860;2023-06-05T16:49:36;3.67;;;3.08;;
45867;SDS011;31582;45.490;7.860;2023-06-05T16:52:04;3.75;;;3.25;;
45867;SDS011;31582;45.490;7.860;2023-06-05T16:54:31;5.07;;;3.17;;
45867;SDS011;31582;45.490;7.860;2023-06-05T16:56:58;3.20;;;2.90;;
45867;SDS011;31582;45.490;7.860;2023-06-05T16:59:24;4.97;;;2.90;;
45867;SDS011;31582;45.490;7.860;2023-06-05T17:01:51;4.03;;;2.45;;
45867;SDS011;31582;45.490;7.860;2023-06-05T17:04:18;3.20;;;2.17;;
45867;SDS011;31582;45.490;7.860;2023-06-05T17:06:46;2.83;;;2.53;;
45867;SDS011;31582;45.490;7.860;2023-06-05T17:09:15;2.80;;;2.50;;
45867;SDS011;31582;45.490;7.860;2023-06-05T17:11:42;2.40;;;2.20;;
45867;SDS011;31582;45.490;7.860;2023-06-05T17:14:11;2.50;;;2.30;;
45867;SDS011;31582;45.490;7.860;2023-06-05T17:16:38;4.28;;;2.42;;
45867;SDS011;31582;45.490;7.860;2023-06-05T17:19:05;2.90;;;2.10;;
45867;SDS011;31582;45.490;7.860;2023-06-05T17:21:32;2.72;;;2.30;;
45867;SDS011;31582;45.490;7.860;2023-06-05T17:23:59;2.85;;;2.33;;